Strona główna
METAR-TAF:

METAR-TAF

Lotnisko :

Belo Horizonte, Minas Gerais, Brazylia

Szerokość geograficzna: 19-54-33S, Długość geograficzna: 043-59-21W, wysokość: 928 m

Aktualna obserwacja pogody

Raport powstał 2 godziny i 15 minut temu, godzina 17:00 UTC
Wiatr 5 kt od północny wschód
Temperatura 23°C
Wilgotność 47%
Ciśnienie 1022 hPa
Widzialność 10 km lub więcej
Brak chmur poniżej 1500 m i brak chmur cumulonimbus

METAR: SBPR 301700Z 04005KT CAVOK 23/11 Q1022

czas: 16:15 (19:15 UTC)


TAF: brakujący

Obserwacja i prognoza pogody dla ponad 4000 lotnisk (raport METAR i TAF).

Dostępne stacje oznaczono żółtymi i czerwonymi punktami na mapie.

Najedź kursorem aby zobaczyć nazwę stacji.

Kliknij aby zobaczyć obserwacje i prognozy pogody.

Aby zmienić mapę: kliknij na zielony przycisk z czarnym krzyżykiem, aby powiększyć; na zielony przycisk z myślnikiem, aby pomniejszyć; na zielone strzałki, aby przejść do map sąsiednich.


METAR-TAF: